sensor_id;sensor_type;location;lat;lon;timestamp;pressure;altitude;pressure_sealevel;temperature;humidity
46583;BME280;32309;48.858;8.252;2023-03-01T00:00:22;101184.88;;;-1.09;66.35
46583;BME280;32309;48.858;8.252;2023-03-01T00:02:22;101188.22;;;-1.18;66.76
46583;BME280;32309;48.858;8.252;2023-03-01T00:04:22;101189.09;;;-1.14;66.58
46583;BME280;32309;48.858;8.252;2023-03-01T00:06:23;101187.38;;;-1.17;66.75
46583;BME280;32309;48.858;8.252;2023-03-01T00:08:25;101191.59;;;-1.21;66.96
46583;BME280;32309;48.858;8.252;2023-03-01T00:10:26;101189.09;;;-1.16;66.93
46583;BME280;32309;48.858;8.252;2023-03-01T00:12:26;101191.59;;;-1.19;67.18
46583;BME280;32309;48.858;8.252;2023-03-01T00:14:27;101195.84;;;-1.15;66.86
46583;BME280;32309;48.858;8.252;2023-03-01T00:16:29;101194.97;;;-1.22;67.10
46583;BME280;32309;48.858;8.252;2023-03-01T00:18:31;101197.50;;;-1.25;67.26
46583;BME280;32309;48.858;8.252;2023-03-01T00:20:32;101189.88;;;-1.23;66.99
46583;BME280;32309;48.858;8.252;2023-03-01T00:22:32;101184.78;;;-1.25;67.28
46583;BME280;32309;48.858;8.252;2023-03-01T00:24:32;101195.78;;;-1.32;67.50
46583;BME280;32309;48.858;8.252;2023-03-01T00:26:33;101183.06;;;-1.32;67.43
46583;BME280;32309;48.858;8.252;2023-03-01T00:28:33;101183.91;;;-1.30;67.24
46583;BME280;32309;48.858;8.252;2023-03-01T00:30:33;101182.19;;;-1.29;67.12
46583;BME280;32309;48.858;8.252;2023-03-01T00:32:34;101180.53;;;-1.27;67.25
46583;BME280;32309;48.858;8.252;2023-03-01T00:34:34;101174.59;;;-1.28;67.40
46583;BME280;32309;48.858;8.252;2023-03-01T00:36:36;101177.16;;;-1.28;67.29
46583;BME280;32309;48.858;8.252;2023-03-01T00:38:38;101182.19;;;-1.31;67.40
46583;BME280;32309;48.858;8.252;2023-03-01T00:40:39;101181.34;;;-1.35;67.60
46583;BME280;32309;48.858;8.252;2023-03-01T00:42:40;101180.47;;;-1.35;67.55
46583;BME280;32309;48.858;8.252;2023-03-01T00:44:41;101176.22;;;-1.41;67.82
46583;BME280;32309;48.858;8.252;2023-03-01T00:46:41;101186.34;;;-1.45;67.91
46583;BME280;32309;48.858;8.252;2023-03-01T00:48:42;101182.94;;;-1.47;68.07
46583;BME280;32309;48.858;8.252;2023-03-01T00:50:42;101184.66;;;-1.45;67.82
46583;BME280;32309;48.858;8.252;2023-03-01T00:52:43;101183.84;;;-1.44;68.27
46583;BME280;32309;48.858;8.252;2023-03-01T00:54:44;101188.91;;;-1.44;67.85
46583;BME280;32309;48.858;8.252;2023-03-01T00:56:44;101192.28;;;-1.46;67.96
46583;BME280;32309;48.858;8.252;2023-03-01T00:58:44;101189.72;;;-1.48;68.17
46583;BME280;32309;48.858;8.252;2023-03-01T01:00:45;101181.22;;;-1.52;68.14
46583;BME280;32309;48.858;8.252;2023-03-01T01:02:45;101183.72;;;-1.59;68.37
46583;BME280;32309;48.858;8.252;2023-03-01T01:04:46;101180.34;;;-1.58;68.48
46583;BME280;32309;48.858;8.252;2023-03-01T01:06:47;101180.31;;;-1.60;68.80
46583;BME280;32309;48.858;8.252;2023-03-01T01:08:48;101173.53;;;-1.61;68.53
46583;BME280;32309;48.858;8.252;2023-03-01T01:10:49;101169.31;;;-1.57;68.70
46583;BME280;32309;48.858;8.252;2023-03-01T01:12:49;101175.25;;;-1.55;68.46
46583;BME280;32309;48.858;8.252;2023-03-01T01:14:49;101173.56;;;-1.55;68.04
46583;BME280;32309;48.858;8.252;2023-03-01T01:16:50;101174.38;;;-1.59;68.38
46583;BME280;32309;48.858;8.252;2023-03-01T01:19:02;101178.63;;;-1.61;68.72
46583;BME280;32309;48.858;8.252;2023-03-01T01:21:07;101173.50;;;-1.65;68.84
46583;BME280;32309;48.858;8.252;2023-03-01T01:23:10;101169.22;;;-1.71;69.39
46583;BME280;32309;48.858;8.252;2023-03-01T01:25:10;101170.09;;;-1.68;69.19
46583;BME280;32309;48.858;8.252;2023-03-01T01:27:13;101170.94;;;-1.69;69.49
46583;BME280;32309;48.858;8.252;2023-03-01T01:29:13;101171.78;;;-1.68;69.23
46583;BME280;32309;48.858;8.252;2023-03-01T01:31:14;101167.56;;;-1.68;69.24
46583;BME280;32309;48.858;8.252;2023-03-01T01:33:14;101159.06;;;-1.71;69.21
46583;BME280;32309;48.858;8.252;2023-03-01T01:35:17;101159.06;;;-1.71;69.33
46583;BME280;32309;48.858;8.252;2023-03-01T01:37:17;101164.16;;;-1.67;69.41
46583;BME280;32309;48.858;8.252;2023-03-01T01:39:17;101160.78;;;-1.62;69.38
46583;BME280;32309;48.858;8.252;2023-03-01T01:41:18;101147.22;;;-1.66;69.40
46583;BME280;32309;48.858;8.252;2023-03-01T01:43:33;101151.50;;;-1.60;69.37
46583;BME280;32309;48.858;8.252;2023-03-01T01:45:38;101149.00;;;-1.56;69.37
46583;BME280;32309;48.858;8.252;2023-03-01T01:47:38;101145.59;;;-1.55;68.99
46583;BME280;32309;48.858;8.252;2023-03-01T01:51:42;101142.22;;;-1.51;69.11
46583;BME280;32309;48.858;8.252;2023-03-01T01:53:46;101143.09;;;-1.52;69.44
46583;BME280;32309;48.858;8.252;2023-03-01T01:55:54;101137.97;;;-1.53;69.11
46583;BME280;32309;48.858;8.252;2023-03-01T01:57:59;101147.31;;;-1.51;69.37
46583;BME280;32309;48.858;8.252;2023-03-01T02:00:07;101129.50;;;-1.52;69.08
46583;BME280;32309;48.858;8.252;2023-03-01T02:02:10;101137.13;;;-1.58;69.27
46583;BME280;32309;48.858;8.252;2023-03-01T02:04:11;101134.59;;;-1.57;69.40
46583;BME280;32309;48.858;8.252;2023-03-01T02:06:13;101128.63;;;-1.60;69.14
46583;BME280;32309;48.858;8.252;2023-03-01T02:08:29;101129.44;;;-1.61;69.49
46583;BME280;32309;48.858;8.252;2023-03-01T02:10:34;101119.28;;;-1.66;69.32
46583;BME280;32309;48.858;8.252;2023-03-01T02:12:36;101124.34;;;-1.68;69.60
46583;BME280;32309;48.858;8.252;2023-03-01T02:14:38;101119.22;;;-1.69;69.68
46583;BME280;32309;48.858;8.252;2023-03-01T02:16:38;101118.34;;;-1.76;69.58
46583;BME280;32309;48.858;8.252;2023-03-01T02:18:44;101119.22;;;-1.72;69.81
46583;BME280;32309;48.858;8.252;2023-03-01T02:21:05;101121.72;;;-1.78;69.93
46583;BME280;32309;48.858;8.252;2023-03-01T02:23:08;101113.25;;;-1.79;70.03
46583;BME280;32309;48.858;8.252;2023-03-01T02:25:20;101103.03;;;-1.84;70.08
46583;BME280;32309;48.858;8.252;2023-03-01T02:29:50;101113.16;;;-1.91;71.04
46583;BME280;32309;48.858;8.252;2023-03-01T02:31:51;101106.38;;;-1.94;71.21
46583;BME280;32309;48.858;8.252;2023-03-01T02:33:55;101101.28;;;-1.94;70.62
46583;BME280;32309;48.858;8.252;2023-03-01T02:35:56;101102.13;;;-1.96;71.08
46583;BME280;32309;48.858;8.252;2023-03-01T02:37:57;101094.50;;;-1.98;71.20
46583;BME280;32309;48.858;8.252;2023-03-01T02:40:03;101092.78;;;-1.97;71.09
46583;BME280;32309;48.858;8.252;2023-03-01T02:42:14;101089.38;;;-2.01;71.39
46583;BME280;32309;48.858;8.252;2023-03-01T02:44:20;101091.88;;;-2.06;71.75
46583;BME280;32309;48.858;8.252;2023-03-01T02:46:22;101087.69;;;-1.99;71.65
46583;BME280;32309;48.858;8.252;2023-03-01T02:48:24;101087.69;;;-2.01;71.22
46583;BME280;32309;48.858;8.252;2023-03-01T02:52:37;101096.06;;;-2.11;71.71
46583;BME280;32309;48.858;8.252;2023-03-01T02:54:58;101091.81;;;-2.13;72.18
46583;BME280;32309;48.858;8.252;2023-03-01T02:57:03;101085.03;;;-2.14;71.66
46583;BME280;32309;48.858;8.252;2023-03-01T02:59:03;101086.69;;;-2.18;71.90
46583;BME280;32309;48.858;8.252;2023-03-01T03:01:04;101072.31;;;-2.18;72.20
46583;BME280;32309;48.858;8.252;2023-03-01T03:03:04;101078.25;;;-2.17;72.38
46583;BME280;32309;48.858;8.252;2023-03-01T03:05:09;101082.47;;;-2.18;72.75
46583;BME280;32309;48.858;8.252;2023-03-01T03:07:11;101073.16;;;-2.19;72.25
46583;BME280;32309;48.858;8.252;2023-03-01T03:09:12;101068.91;;;-2.18;72.73
46583;BME280;32309;48.858;8.252;2023-03-01T03:11:16;101075.69;;;-2.22;72.92
46583;BME280;32309;48.858;8.252;2023-03-01T03:13:16;101068.91;;;-2.21;72.64
46583;BME280;32309;48.858;8.252;2023-03-01T03:15:17;101078.22;;;-2.20;72.36
46583;BME280;32309;48.858;8.252;2023-03-01T03:17:17;101072.34;;;-2.13;72.39
46583;BME280;32309;48.858;8.252;2023-03-01T03:19:18;101059.69;;;-2.08;71.83
46583;BME280;32309;48.858;8.252;2023-03-01T03:21:21;101066.44;;;-2.07;72.34
46583;BME280;32309;48.858;8.252;2023-03-01T03:23:22;101063.91;;;-2.10;71.95
46583;BME280;32309;48.858;8.252;2023-03-01T03:25:22;101069.84;;;-2.07;72.23
46583;BME280;32309;48.858;8.252;2023-03-01T03:27:23;101063.91;;;-2.09;72.46
46583;BME280;32309;48.858;8.252;2023-03-01T03:29:23;101062.25;;;-2.04;72.38
46583;BME280;32309;48.858;8.252;2023-03-01T03:31:24;101058.88;;;-2.06;72.19
46583;BME280;32309;48.858;8.252;2023-03-01T03:33:24;101063.06;;;-2.08;72.32
46583;BME280;32309;48.858;8.252;2023-03-01T03:35:29;101055.44;;;-2.09;72.08
46583;BME280;32309;48.858;8.252;2023-03-01T03:37:30;101052.84;;;-2.14;72.05
46583;BME280;32309;48.858;8.252;2023-03-01T03:39:49;101049.53;;;-2.07;72.27
46583;BME280;32309;48.858;8.252;2023-03-01T03:41:49;101049.53;;;-2.08;72.08
46583;BME280;32309;48.858;8.252;2023-03-01T03:43:50;101052.03;;;-2.11;72.18
46583;BME280;32309;48.858;8.252;2023-03-01T03:45:50;101051.13;;;-2.23;72.47
46583;BME280;32309;48.858;8.252;2023-03-01T03:47:51;101044.34;;;-2.22;72.32
46583;BME280;32309;48.858;8.252;2023-03-01T03:49:51;101047.69;;;-2.25;72.65
46583;BME280;32309;48.858;8.252;2023-03-01T03:51:52;101045.97;;;-2.27;73.28
46583;BME280;32309;48.858;8.252;2023-03-01T03:53:52;101051.13;;;-2.21;73.23
46583;BME280;32309;48.858;8.252;2023-03-01T03:55:52;101044.31;;;-2.24;72.92
46583;BME280;32309;48.858;8.252;2023-03-01T03:57:53;101047.69;;;-2.25;73.38
46583;BME280;32309;48.858;8.252;2023-03-01T03:59:53;101038.38;;;-2.27;72.83
46583;BME280;32309;48.858;8.252;2023-03-01T04:01:54;101033.28;;;-2.27;72.88
46583;BME280;32309;48.858;8.252;2023-03-01T04:03:54;101042.59;;;-2.29;73.40
46583;BME280;32309;48.858;8.252;2023-03-01T04:05:56;101032.44;;;-2.28;73.21
46583;BME280;32309;48.858;8.252;2023-03-01T04:07:58;101030.72;;;-2.32;73.40
46583;BME280;32309;48.858;8.252;2023-03-01T04:10:06;101027.34;;;-2.31;73.09
46583;BME280;32309;48.858;8.252;2023-03-01T04:12:09;101029.84;;;-2.37;73.68
46583;BME280;32309;48.858;8.252;2023-03-01T04:14:09;101028.16;;;-2.35;73.66
46583;BME280;32309;48.858;8.252;2023-03-01T04:16:12;101027.31;;;-2.36;73.51
46583;BME280;32309;48.858;8.252;2023-03-01T04:18:12;101027.28;;;-2.39;73.15
46583;BME280;32309;48.858;8.252;2023-03-01T04:20:15;101027.28;;;-2.39;73.35
46583;BME280;32309;48.858;8.252;2023-03-01T04:22:17;101021.34;;;-2.42;74.08
46583;BME280;32309;48.858;8.252;2023-03-01T04:24:18;101028.94;;;-2.42;74.11
46583;BME280;32309;48.858;8.252;2023-03-01T04:26:19;101020.50;;;-2.43;73.81
46583;BME280;32309;48.858;8.252;2023-03-01T04:30:24;101010.28;;;-2.51;73.89
46583;BME280;32309;48.858;8.252;2023-03-01T04:32:25;101016.16;;;-2.55;74.51
46583;BME280;32309;48.858;8.252;2023-03-01T04:34:25;101002.66;;;-2.51;74.22
46583;BME280;32309;48.858;8.252;2023-03-01T04:36:29;101000.13;;;-2.47;74.22
46583;BME280;32309;48.858;8.252;2023-03-01T04:38:29;101011.13;;;-2.48;74.06
46583;BME280;32309;48.858;8.252;2023-03-01T04:40:29;101011.09;;;-2.52;74.35
46583;BME280;32309;48.858;8.252;2023-03-01T04:42:30;101005.16;;;-2.54;74.67
46583;BME280;32309;48.858;8.252;2023-03-01T04:44:30;101010.22;;;-2.52;74.91
46583;BME280;32309;48.858;8.252;2023-03-01T04:46:30;101011.03;;;-2.58;74.93
46583;BME280;32309;48.858;8.252;2023-03-01T04:48:30;101015.28;;;-2.58;75.22
46583;BME280;32309;48.858;8.252;2023-03-01T04:50:31;101009.38;;;-2.57;74.95
46583;BME280;32309;48.858;8.252;2023-03-01T04:52:32;101001.78;;;-2.56;75.04
46583;BME280;32309;48.858;8.252;2023-03-01T04:54:33;101008.59;;;-2.47;74.71
46583;BME280;32309;48.858;8.252;2023-03-01T04:56:34;101010.22;;;-2.55;74.73
46583;BME280;32309;48.858;8.252;2023-03-01T04:58:34;101008.56;;;-2.55;75.04
46583;BME280;32309;48.858;8.252;2023-03-01T05:00:35;101008.59;;;-2.48;74.95
46583;BME280;32309;48.858;8.252;2023-03-01T05:02:35;101011.09;;;-2.53;74.85
46583;BME280;32309;48.858;8.252;2023-03-01T05:04:35;101020.34;;;-2.60;75.19
46583;BME280;32309;48.858;8.252;2023-03-01T05:06:35;101023.72;;;-2.62;75.52
46583;BME280;32309;48.858;8.252;2023-03-01T05:08:36;101015.22;;;-2.66;75.68
46583;BME280;32309;48.858;8.252;2023-03-01T05:10:37;101022.84;;;-2.64;76.19
46583;BME280;32309;48.858;8.252;2023-03-01T05:12:38;101022.00;;;-2.65;76.16
46583;BME280;32309;48.858;8.252;2023-03-01T05:14:39;101022.00;;;-2.65;75.74
46583;BME280;32309;48.858;8.252;2023-03-01T05:16:39;101020.34;;;-2.58;75.38
46583;BME280;32309;48.858;8.252;2023-03-01T05:18:40;101020.31;;;-2.61;75.53
46583;BME280;32309;48.858;8.252;2023-03-01T05:20:40;101018.63;;;-2.64;75.19
46583;BME280;32309;48.858;8.252;2023-03-01T05:22:40;101019.47;;;-2.63;75.19
46583;BME280;32309;48.858;8.252;2023-03-01T05:24:41;101017.81;;;-2.58;74.90
46583;BME280;32309;48.858;8.252;2023-03-01T05:26:41;101015.22;;;-2.64;75.06
46583;BME280;32309;48.858;8.252;2023-03-01T05:28:41;101017.75;;;-2.66;75.33
46583;BME280;32309;48.858;8.252;2023-03-01T05:30:42;101016.88;;;-2.70;75.84
46583;BME280;32309;48.858;8.252;2023-03-01T05:32:46;101021.94;;;-2.70;75.35
46583;BME280;32309;48.858;8.252;2023-03-01T05:34:48;101021.09;;;-2.72;75.43
46583;BME280;32309;48.858;8.252;2023-03-01T05:36:48;101024.53;;;-2.66;75.37
46583;BME280;32309;48.858;8.252;2023-03-01T05:38:52;101021.16;;;-2.64;75.32
46583;BME280;32309;48.858;8.252;2023-03-01T05:40:53;101022.81;;;-2.68;75.37
46583;BME280;32309;48.858;8.252;2023-03-01T05:42:54;101019.47;;;-2.63;75.18
46583;BME280;32309;48.858;8.252;2023-03-01T05:44:56;101020.31;;;-2.63;75.55
46583;BME280;32309;48.858;8.252;2023-03-01T05:46:56;101016.88;;;-2.68;75.32
46583;BME280;32309;48.858;8.252;2023-03-01T05:48:56;101010.13;;;-2.66;75.31
46583;BME280;32309;48.858;8.252;2023-03-01T05:50:58;101012.69;;;-2.64;76.12
46583;BME280;32309;48.858;8.252;2023-03-01T05:53:00;101022.00;;;-2.65;75.43
46583;BME280;32309;48.858;8.252;2023-03-01T05:55:08;101029.53;;;-2.71;75.99
46583;BME280;32309;48.858;8.252;2023-03-01T05:57:08;101021.13;;;-2.67;75.88
46583;BME280;32309;48.858;8.252;2023-03-01T05:59:09;101020.28;;;-2.68;75.84
46583;BME280;32309;48.858;8.252;2023-03-01T06:01:14;101014.31;;;-2.73;76.10
46583;BME280;32309;48.858;8.252;2023-03-01T06:03:15;101017.69;;;-2.74;75.64
46583;BME280;32309;48.858;8.252;2023-03-01T06:05:17;101024.44;;;-2.74;75.31
46583;BME280;32309;48.858;8.252;2023-03-01T06:07:17;101022.75;;;-2.75;76.01
46583;BME280;32309;48.858;8.252;2023-03-01T06:09:18;101026.19;;;-2.69;76.00
46583;BME280;32309;48.858;8.252;2023-03-01T06:11:18;101017.66;;;-2.77;76.24
46583;BME280;32309;48.858;8.252;2023-03-01T06:13:19;101023.63;;;-2.72;75.66
46583;BME280;32309;48.858;8.252;2023-03-01T06:15:20;101024.47;;;-2.70;75.81
46583;BME280;32309;48.858;8.252;2023-03-01T06:17:20;101019.38;;;-2.74;75.47
46583;BME280;32309;48.858;8.252;2023-03-01T06:19:21;101024.47;;;-2.71;76.21
46583;BME280;32309;48.858;8.252;2023-03-01T06:21:21;101022.81;;;-2.69;75.44
46583;BME280;32309;48.858;8.252;2023-03-01T06:23:22;101024.47;;;-2.70;76.23
46583;BME280;32309;48.858;8.252;2023-03-01T06:25:23;101021.94;;;-2.68;76.07
46583;BME280;32309;48.858;8.252;2023-03-01T06:27:25;101016.03;;;-2.70;75.67
46583;BME280;32309;48.858;8.252;2023-03-01T06:29:25;101018.63;;;-2.64;75.52
46583;BME280;32309;48.858;8.252;2023-03-01T06:31:26;101017.72;;;-2.69;76.20
46583;BME280;32309;48.858;8.252;2023-03-01T06:33:34;101011.78;;;-2.70;76.17
46583;BME280;32309;48.858;8.252;2023-03-01T06:35:36;101021.91;;;-2.73;76.45
46583;BME280;32309;48.858;8.252;2023-03-01T06:37:37;101019.47;;;-2.62;75.60
46583;BME280;32309;48.858;8.252;2023-03-01T06:39:37;101025.44;;;-2.60;75.49
46583;BME280;32309;48.858;8.252;2023-03-01T06:41:38;101021.19;;;-2.59;75.43
46583;BME280;32309;48.858;8.252;2023-03-01T06:43:38;101026.25;;;-2.61;75.39
46583;BME280;32309;48.858;8.252;2023-03-01T06:45:39;101018.59;;;-2.65;75.96
46583;BME280;32309;48.858;8.252;2023-03-01T06:47:39;101013.56;;;-2.64;75.98
46583;BME280;32309;48.858;8.252;2023-03-01T06:49:40;101013.56;;;-2.62;75.35
46583;BME280;32309;48.858;8.252;2023-03-01T06:51:41;101004.31;;;-2.56;75.51
46583;BME280;32309;48.858;8.252;2023-03-01T06:53:41;101007.75;;;-2.51;74.89
46583;BME280;32309;48.858;8.252;2023-03-01T06:55:42;101003.50;;;-2.47;74.58
46583;BME280;32309;48.858;8.252;2023-03-01T06:57:42;101006.94;;;-2.45;75.45
46583;BME280;32309;48.858;8.252;2023-03-01T06:59:42;101007.81;;;-2.40;75.56
46583;BME280;32309;48.858;8.252;2023-03-01T07:01:43;101003.63;;;-2.36;75.00
46583;BME280;32309;48.858;8.252;2023-03-01T07:03:43;101002.81;;;-2.27;74.43
46583;BME280;32309;48.858;8.252;2023-03-01T07:05:44;101000.28;;;-2.30;74.85
46583;BME280;32309;48.858;8.252;2023-03-01T07:07:44;100999.44;;;-2.25;74.73
46583;BME280;32309;48.858;8.252;2023-03-01T07:09:45;101002.88;;;-2.18;74.32
46583;BME280;32309;48.858;8.252;2023-03-01T07:11:45;101002.06;;;-2.14;73.52
46583;BME280;32309;48.858;8.252;2023-03-01T07:13:46;100997.88;;;-2.07;73.74
46583;BME280;32309;48.858;8.252;2023-03-01T07:15:47;100991.13;;;-2.02;73.74
46583;BME280;32309;48.858;8.252;2023-03-01T07:17:47;100992.84;;;-1.99;73.01
46583;BME280;32309;48.858;8.252;2023-03-01T07:19:50;100994.53;;;-1.97;73.21
46583;BME280;32309;48.858;8.252;2023-03-01T07:21:53;100992.88;;;-1.93;72.78
46583;BME280;32309;48.858;8.252;2023-03-01T07:23:53;100982.72;;;-1.92;73.11
46583;BME280;32309;48.858;8.252;2023-03-01T07:25:54;100982.72;;;-1.90;72.40
46583;BME280;32309;48.858;8.252;2023-03-01T07:27:54;100984.44;;;-1.89;72.85
46583;BME280;32309;48.858;8.252;2023-03-01T07:29:54;100980.22;;;-1.87;73.08
46583;BME280;32309;48.858;8.252;2023-03-01T07:31:55;100989.56;;;-1.83;72.89
46583;BME280;32309;48.858;8.252;2023-03-01T07:33:55;100983.59;;;-1.84;72.55
46583;BME280;32309;48.858;8.252;2023-03-01T07:35:57;100981.88;;;-1.86;73.51
46583;BME280;32309;48.858;8.252;2023-03-01T07:38:00;100986.97;;;-1.86;72.96
46583;BME280;32309;48.858;8.252;2023-03-01T07:40:00;100989.53;;;-1.85;72.79
46583;BME280;32309;48.858;8.252;2023-03-01T07:42:01;100985.34;;;-1.79;72.28
46583;BME280;32309;48.858;8.252;2023-03-01T07:44:01;100973.47;;;-1.82;72.72
46583;BME280;32309;48.858;8.252;2023-03-01T07:46:02;100978.56;;;-1.82;73.11
46583;BME280;32309;48.858;8.252;2023-03-01T07:48:03;100980.25;;;-1.76;73.16
46583;BME280;32309;48.858;8.252;2023-03-01T07:50:04;100982.84;;;-1.70;72.78
46583;BME280;32309;48.858;8.252;2023-03-01T07:52:05;100976.94;;;-1.60;72.58
46583;BME280;32309;48.858;8.252;2023-03-01T07:54:05;100971.88;;;-1.57;72.03
46583;BME280;32309;48.858;8.252;2023-03-01T07:56:07;100975.28;;;-1.52;71.91
46583;BME280;32309;48.858;8.252;2023-03-01T07:58:08;100975.28;;;-1.48;72.24
46583;BME280;32309;48.858;8.252;2023-03-01T08:00:10;100966.00;;;-1.40;71.76
46583;BME280;32309;48.858;8.252;2023-03-01T08:02:11;100967.72;;;-1.33;71.52
46583;BME280;32309;48.858;8.252;2023-03-01T08:04:11;100968.56;;;-1.29;71.70
46583;BME280;32309;48.858;8.252;2023-03-01T08:06:12;100967.75;;;-1.22;71.45
46583;BME280;32309;48.858;8.252;2023-03-01T08:08:15;100965.22;;;-1.13;71.36
46583;BME280;32309;48.858;8.252;2023-03-01T08:10:15;100964.38;;;-1.04;70.54
46583;BME280;32309;48.858;8.252;2023-03-01T08:12:16;100966.91;;;-0.98;70.63
46583;BME280;32309;48.858;8.252;2023-03-01T08:14:16;100966.91;;;-0.96;70.60
46583;BME280;32309;48.858;8.252;2023-03-01T08:16:17;100966.94;;;-0.90;70.11
46583;BME280;32309;48.858;8.252;2023-03-01T08:18:18;100954.19;;;-0.87;69.75
46583;BME280;32309;48.858;8.252;2023-03-01T08:20:19;100961.84;;;-0.82;69.88
46583;BME280;32309;48.858;8.252;2023-03-01T08:22:19;100953.38;;;-0.77;69.70
46583;BME280;32309;48.858;8.252;2023-03-01T08:24:19;100955.94;;;-0.72;69.22
46583;BME280;32309;48.858;8.252;2023-03-01T08:26:20;100952.53;;;-0.70;69.13
46583;BME280;32309;48.858;8.252;2023-03-01T08:28:21;100952.53;;;-0.67;69.10
46583;BME280;32309;48.858;8.252;2023-03-01T08:30:21;100955.94;;;-0.63;68.97
46583;BME280;32309;48.858;8.252;2023-03-01T08:32:23;100950.84;;;-0.57;68.51
46583;BME280;32309;48.858;8.252;2023-03-01T08:34:24;100944.88;;;-0.54;69.03
46583;BME280;32309;48.858;8.252;2023-03-01T08:36:29;100946.56;;;-0.45;68.73
46583;BME280;32309;48.858;8.252;2023-03-01T08:38:31;100947.41;;;-0.39;68.04
46583;BME280;32309;48.858;8.252;2023-03-01T08:40:31;100945.69;;;-0.40;68.40
46583;BME280;32309;48.858;8.252;2023-03-01T08:42:32;100947.41;;;-0.34;68.18
46583;BME280;32309;48.858;8.252;2023-03-01T08:44:33;100940.59;;;-0.27;68.17
46583;BME280;32309;48.858;8.252;2023-03-01T08:46:36;100940.59;;;-0.20;68.14
46583;BME280;32309;48.858;8.252;2023-03-01T08:48:38;100939.72;;;-0.11;67.45
46583;BME280;32309;48.858;8.252;2023-03-01T08:50:38;100948.22;;;-0.10;67.23
46583;BME280;32309;48.858;8.252;2023-03-01T08:52:38;100939.72;;;-0.06;67.03
46583;BME280;32309;48.858;8.252;2023-03-01T08:54:39;100941.38;;;-0.01;67.14
46583;BME280;32309;48.858;8.252;2023-03-01T08:56:39;100926.06;;;0.09;66.25
46583;BME280;32309;48.858;8.252;2023-03-01T08:58:39;100926.06;;;0.09;67.02
46583;BME280;32309;48.858;8.252;2023-03-01T09:00:43;100929.41;;;0.17;66.31
46583;BME280;32309;48.858;8.252;2023-03-01T09:02:43;100924.31;;;0.17;66.29
46583;BME280;32309;48.858;8.252;2023-03-01T09:04:43;100922.59;;;0.27;66.08
46583;BME280;32309;48.858;8.252;2023-03-01T09:06:44;100914.06;;;0.26;66.23
46583;BME280;32309;48.858;8.252;2023-03-01T09:08:45;100921.69;;;0.36;66.38
46583;BME280;32309;48.858;8.252;2023-03-01T09:10:47;100914.03;;;0.40;65.55
46583;BME280;32309;48.858;8.252;2023-03-01T09:12:47;100908.06;;;0.44;65.18
46583;BME280;32309;48.858;8.252;2023-03-01T09:14:47;100908.88;;;0.45;65.91
46583;BME280;32309;48.858;8.252;2023-03-01T09:16:48;100908.03;;;0.51;65.55
46583;BME280;32309;48.858;8.252;2023-03-01T09:18:49;100913.06;;;0.57;65.94
46583;BME280;32309;48.858;8.252;2023-03-01T09:20:50;100906.25;;;0.63;65.55
46583;BME280;32309;48.858;8.252;2023-03-01T09:22:50;100903.66;;;0.68;64.87
46583;BME280;32309;48.858;8.252;2023-03-01T09:24:50;100900.22;;;0.75;64.65
46583;BME280;32309;48.858;8.252;2023-03-01T09:26:52;100900.19;;;0.78;65.11
46583;BME280;32309;48.858;8.252;2023-03-01T09:28:55;100907.81;;;0.85;65.30
46583;BME280;32309;48.858;8.252;2023-03-01T09:30:59;100900.09;;;0.91;65.17
46583;BME280;32309;48.858;8.252;2023-03-01T09:32:59;100909.38;;;1.01;64.58
46583;BME280;32309;48.858;8.252;2023-03-01T09:35:00;100906.81;;;1.03;64.47
46583;BME280;32309;48.858;8.252;2023-03-01T09:37:06;100905.88;;;1.14;63.54
46583;BME280;32309;48.858;8.252;2023-03-01T09:39:06;100900.75;;;1.16;64.15
46583;BME280;32309;48.858;8.252;2023-03-01T09:41:11;100897.31;;;1.22;64.20
46583;BME280;32309;48.858;8.252;2023-03-01T09:45:45;100889.47;;;1.42;63.24
46583;BME280;32309;48.858;8.252;2023-03-01T09:47:48;100886.84;;;1.46;62.96
46583;BME280;32309;48.858;8.252;2023-03-01T09:50:11;100881.69;;;1.53;63.19
46583;BME280;32309;48.858;8.252;2023-03-01T09:52:28;100889.22;;;1.66;62.39
46583;BME280;32309;48.858;8.252;2023-03-01T09:54:32;100878.94;;;1.71;61.97
46583;BME280;32309;48.858;8.252;2023-03-01T10:03:17;100870.91;;;2.04;61.34
46583;BME280;32309;48.858;8.252;2023-03-01T10:07:39;100864.00;;;2.09;60.58
46583;BME280;32309;48.858;8.252;2023-03-01T10:09:54;100865.72;;;2.07;61.25
46583;BME280;32309;48.858;8.252;2023-03-01T10:11:55;100865.66;;;2.13;60.44
46583;BME280;32309;48.858;8.252;2023-03-01T10:16:09;100854.53;;;2.17;60.00
46583;BME280;32309;48.858;8.252;2023-03-01T10:18:16;100855.34;;;2.17;60.68
46583;BME280;32309;48.858;8.252;2023-03-01T10:20:23;100856.13;;;2.26;61.06
46583;BME280;32309;48.858;8.252;2023-03-01T10:22:33;100849.91;;;2.42;60.54
46583;BME280;32309;48.858;8.252;2023-03-01T10:24:35;100841.31;;;2.46;59.32
46583;BME280;32309;48.858;8.252;2023-03-01T10:31:03;100838.78;;;2.45;59.91
46583;BME280;32309;48.858;8.252;2023-03-01T10:33:04;100835.31;;;2.49;59.79
46583;BME280;32309;48.858;8.252;2023-03-01T10:35:25;100830.06;;;2.58;59.98
46583;BME280;32309;48.858;8.252;2023-03-01T10:37:27;100832.50;;;2.66;59.29
46583;BME280;32309;48.858;8.252;2023-03-01T10:39:28;100833.34;;;2.68;59.23
46583;BME280;32309;48.858;8.252;2023-03-01T10:41:28;100840.81;;;2.80;58.01
46583;BME280;32309;48.858;8.252;2023-03-01T10:43:32;100823.66;;;2.86;57.82
46583;BME280;32309;48.858;8.252;2023-03-01T10:45:44;100818.53;;;2.86;57.96
46583;BME280;32309;48.858;8.252;2023-03-01T10:47:44;100820.13;;;2.91;57.77
46583;BME280;32309;48.858;8.252;2023-03-01T10:49:55;100822.59;;;2.97;57.87
46583;BME280;32309;48.858;8.252;2023-03-01T10:52:18;100808.97;;;2.95;57.57
46583;BME280;32309;48.858;8.252;2023-03-01T10:56:20;100805.16;;;3.20;57.56
46583;BME280;32309;48.858;8.252;2023-03-01T10:58:21;100809.34;;;3.24;56.58
46583;BME280;32309;48.858;8.252;2023-03-01T11:00:25;100806.00;;;3.19;57.02
46583;BME280;32309;48.858;8.252;2023-03-01T11:02:28;100795.66;;;3.25;57.36
46583;BME280;32309;48.858;8.252;2023-03-01T11:04:29;100794.59;;;3.35;56.88
46583;BME280;32309;48.858;8.252;2023-03-01T11:06:30;100791.13;;;3.39;56.57
46583;BME280;32309;48.858;8.252;2023-03-01T11:08:31;100791.00;;;3.44;56.71